createdAt,value
2023-05-20T00:00:37.595Z,0.8
2023-05-20T00:07:00.633Z,0.7
2023-05-20T00:13:20.533Z,0.7
2023-05-20T00:19:43.601Z,0.7
2023-05-20T00:26:03.508Z,0.7
2023-05-20T00:32:26.955Z,0.8
2023-05-20T00:38:46.587Z,0.8
2023-05-20T00:45:09.529Z,1.2
2023-05-20T00:51:29.570Z,1.2
2023-05-20T00:57:52.604Z,0.5
2023-05-20T01:04:12.582Z,0.5
2023-05-20T01:10:35.525Z,1
2023-05-20T01:16:55.644Z,1
2023-05-20T01:23:18.517Z,0.9
2023-05-20T01:29:38.607Z,0.9
2023-05-20T01:36:01.564Z,1.4
2023-05-20T01:42:21.683Z,1.4
2023-05-20T01:48:44.549Z,0.8
2023-05-20T01:55:04.676Z,0.8
2023-05-20T02:01:27.660Z,1.3
2023-05-20T02:07:47.544Z,1.3
2023-05-20T02:14:10.571Z,1.3
2023-05-20T02:20:30.667Z,1.3
2023-05-20T02:26:53.586Z,1.8
2023-05-20T02:33:13.781Z,1.8
2023-05-20T02:39:36.564Z,0.6
2023-05-20T02:45:56.613Z,0.6
2023-05-20T02:52:19.540Z,1.3
2023-05-20T02:58:39.550Z,1.3
2023-05-20T03:05:02.673Z,1.9
2023-05-20T03:11:22.816Z,1.9
2023-05-20T03:17:45.573Z,0.9
2023-05-20T03:33:53.108Z,0.8
2023-05-20T03:40:16.004Z,2.7
2023-05-20T03:46:35.584Z,2.7
2023-05-20T03:52:58.747Z,2.7
2023-05-20T03:59:18.506Z,2.7
2023-05-20T04:05:41.582Z,1.8
2023-05-20T04:12:01.554Z,1.8
2023-05-20T04:18:24.683Z,1
2023-05-20T04:24:44.488Z,1
2023-05-20T04:31:07.497Z,1.2
2023-05-20T04:37:27.710Z,1.2
2023-05-20T04:43:50.710Z,1.5
2023-05-20T04:50:10.618Z,1.5
2023-05-20T04:56:33.668Z,0.5
2023-05-20T05:02:53.632Z,0.5
2023-05-20T05:09:16.685Z,1.6
2023-05-20T05:15:36.667Z,1.6
2023-05-20T05:21:59.674Z,1.7
2023-05-20T05:28:19.582Z,1.7
2023-05-20T05:34:42.577Z,1.5
2023-05-20T05:41:02.630Z,1.5
2023-05-20T05:47:25.654Z,0.9
2023-05-20T05:53:45.574Z,0.9
2023-05-20T06:00:08.602Z,1
2023-05-20T06:06:28.791Z,1
2023-05-20T06:12:51.604Z,1
2023-05-20T06:19:11.491Z,1
2023-05-20T06:25:34.740Z,0.8
2023-05-20T06:31:54.608Z,0.8
2023-05-20T06:38:17.635Z,2.3
2023-05-20T06:44:37.630Z,2.3
2023-05-20T06:51:00.539Z,2
2023-05-20T06:57:20.508Z,2
2023-05-20T07:03:43.622Z,1.5
2023-05-20T07:10:03.586Z,1.5
2023-05-20T07:16:26.582Z,1.3
2023-05-20T07:22:46.540Z,1.3
2023-05-20T07:29:09.494Z,2.8
2023-05-20T07:35:29.587Z,2.8
2023-05-20T07:41:52.630Z,0.9
2023-05-20T07:48:12.526Z,0.9
2023-05-20T07:54:35.531Z,2.7
2023-05-20T08:00:55.513Z,2.7
2023-05-20T08:07:18.534Z,1.3
2023-05-20T08:13:38.485Z,1.3
2023-05-20T08:20:01.519Z,3.2
2023-05-20T08:26:21.489Z,3.2
2023-05-20T08:32:44.596Z,1.1
2023-05-20T08:39:04.547Z,1.1
2023-05-20T08:45:27.467Z,0.9
2023-05-20T09:01:16.420Z,1.7
2023-05-20T09:07:36.487Z,1.7
2023-05-20T09:13:59.477Z,3.8
2023-05-20T09:20:19.568Z,3.8
2023-05-20T09:26:42.488Z,3.8
2023-05-20T09:33:02.492Z,3.8
2023-05-20T09:39:25.541Z,1.1
2023-05-20T09:45:45.522Z,1.1
2023-05-20T09:52:08.524Z,2.4
2023-05-20T09:58:28.509Z,2.4
2023-05-20T10:04:51.483Z,2.4
2023-05-20T10:11:11.546Z,2.4
2023-05-20T10:17:34.541Z,1.9
2023-05-20T10:23:54.530Z,1.9
2023-05-20T10:30:17.487Z,1.7
2023-05-20T10:36:37.514Z,1.7
2023-05-20T10:43:00.512Z,1.6
2023-05-20T10:49:21.799Z,1.6
2023-05-20T10:55:43.561Z,1.5
2023-05-20T11:02:03.505Z,1.5
2023-05-20T11:08:29.357Z,3.5
2023-05-20T11:14:46.548Z,3.5
2023-05-20T11:21:09.490Z,1.7
2023-05-20T11:27:29.550Z,1.7
2023-05-20T11:33:52.528Z,1.9
2023-05-20T11:40:12.467Z,1.9
2023-05-20T11:46:35.558Z,4.1
2023-05-20T11:52:55.502Z,4.1
2023-05-20T11:59:18.540Z,3.5
2023-05-20T12:05:38.526Z,3.5
2023-05-20T12:12:01.521Z,3
2023-05-20T12:18:21.520Z,3
2023-05-20T12:24:44.485Z,3.5
2023-05-20T12:31:04.574Z,3.5
2023-05-20T12:37:27.496Z,1.9
2023-05-20T12:43:47.479Z,1.9
2023-05-20T12:50:10.584Z,1.6
2023-05-20T12:56:30.522Z,1.6
2023-05-20T13:02:53.601Z,2.8
2023-05-20T13:09:13.530Z,2.8
2023-05-20T13:15:36.508Z,1.6
2023-05-20T13:21:56.528Z,1.6
2023-05-20T13:28:19.510Z,1.5
2023-05-20T13:34:39.511Z,1.5
2023-05-20T13:41:02.509Z,1.6
2023-05-20T13:47:22.547Z,1.6
2023-05-20T13:53:45.524Z,1.4
2023-05-20T14:00:05.481Z,1.4
2023-05-20T14:06:28.578Z,2
2023-05-20T14:12:48.634Z,2
2023-05-20T14:19:11.755Z,1.5
2023-05-20T14:25:32.056Z,1.5
2023-05-20T14:31:54.614Z,2.4
2023-05-20T14:38:14.482Z,2.4
2023-05-20T14:55:19.086Z,2.4
2023-05-20T15:01:38.533Z,2.4
2023-05-20T15:08:01.515Z,4
2023-05-20T15:14:21.591Z,4
2023-05-20T15:20:44.832Z,4
2023-05-20T15:27:04.496Z,4
2023-05-20T15:33:27.580Z,1.4
2023-05-20T15:39:47.493Z,1.4
2023-05-20T15:46:10.552Z,2.8
2023-05-20T15:52:30.513Z,2.8
2023-05-20T15:58:53.510Z,1.9
2023-05-20T16:05:13.510Z,1.9
2023-05-20T16:11:37.134Z,3.7
2023-05-20T16:17:56.632Z,3.7
2023-05-20T16:24:19.542Z,3.6
2023-05-20T16:30:39.566Z,3.6
2023-05-20T16:37:02.523Z,2
2023-05-20T16:43:22.474Z,2
2023-05-20T16:49:45.535Z,1.6
2023-05-20T16:56:05.491Z,1.6
2023-05-20T17:02:28.518Z,3.2
2023-05-20T17:08:48.549Z,3.2
2023-05-20T17:15:11.959Z,3.3
2023-05-20T17:21:31.513Z,3.3
2023-05-20T17:27:54.572Z,3.1
2023-05-20T17:34:14.595Z,3.1
2023-05-20T17:40:37.846Z,1.9
2023-05-20T17:46:57.520Z,1.9
2023-05-20T17:53:21.939Z,2
2023-05-20T17:59:40.521Z,2
2023-05-20T18:06:03.544Z,1.9
2023-05-20T18:12:23.593Z,1.9
2023-05-20T18:18:46.552Z,4
2023-05-20T18:25:06.649Z,4
2023-05-20T18:31:29.550Z,4.5
2023-05-20T18:37:49.501Z,4.5
2023-05-20T18:44:12.541Z,1.7
2023-05-20T18:50:32.492Z,1.7
2023-05-20T18:56:55.504Z,2.8
2023-05-20T19:03:15.636Z,2.8
2023-05-20T19:09:38.541Z,1.5
2023-05-20T19:15:58.641Z,1.5
2023-05-20T19:22:21.624Z,3.1
2023-05-20T19:28:41.514Z,3.1
2023-05-20T19:35:04.526Z,1.6
2023-05-20T19:41:24.515Z,1.6
2023-05-20T19:47:47.556Z,3.2
2023-05-20T19:54:07.518Z,3.2
2023-05-20T20:00:30.560Z,4.2
2023-05-20T20:06:50.516Z,4.2
2023-05-20T20:13:13.484Z,4.3
2023-05-20T20:19:33.600Z,4.3
2023-05-20T20:36:45.170Z,7
2023-05-20T20:43:05.491Z,7
2023-05-20T20:49:28.671Z,7.1
2023-05-20T20:55:48.620Z,7.1
2023-05-20T21:02:11.476Z,2.2
2023-05-20T21:08:31.521Z,2.2
2023-05-20T21:14:54.527Z,4.5
2023-05-20T21:21:14.513Z,4.5
2023-05-20T21:27:37.549Z,4.1
2023-05-20T21:33:57.509Z,4.1
2023-05-20T21:40:20.518Z,3.5
2023-05-20T21:46:40.650Z,3.5
2023-05-20T21:53:03.506Z,7.5
2023-05-20T21:59:23.603Z,7.5
2023-05-20T22:22:20.497Z,7.5
2023-05-20T22:28:40.531Z,7.5
2023-05-20T22:35:03.489Z,7.5
2023-05-20T22:41:23.694Z,7.5
2023-05-20T22:47:46.532Z,3.5
2023-05-20T22:54:06.601Z,3.5
2023-05-20T23:00:29.649Z,4.4
2023-05-20T23:06:49.571Z,4.4
2023-05-20T23:13:12.550Z,4.3
2023-05-20T23:19:32.629Z,4.3
2023-05-20T23:25:55.583Z,5.3
2023-05-20T23:32:15.678Z,5.3
2023-05-20T23:38:38.587Z,4.6
2023-05-20T23:44:58.613Z,4.6
2023-05-20T23:51:21.593Z,3
2023-05-20T23:57:41.658Z,3
